Weather reports worldwide

Advertisment
Sutton bonington, United Kingdom (99025): temperature & dewpoint: 18.11.2020 04:00:00 - 24.11.2020 04:00:00 (GMT)Sutton bonington, United Kingdom (99025): temperature -20cm & temperature -100cm: 18.11.2020 04:00:00 - 24.11.2020 04:00:00 (GMT)Sutton bonington, United Kingdom (99025): wind speed & gusts: 18.11.2020 04:00:00 - 24.11.2020 04:00:00 (GMT)Sutton bonington, United Kingdom (99025): wind direction: 18.11.2020 04:00:00 - 24.11.2020 04:00:00 (GMT)Sutton bonington, United Kingdom (99025): precipitation: 18.11.2020 04:00:00 - 24.11.2020 04:00:00 (GMT)
Date & Time tt [°C] td [°C] tt -20cm [°C] tt -100cm [°C] ff [km/h] ff [kn] fx [km/h] fx [kn] dd rr [mm]
24.11.2020 04:00:00 10,1 7,9 - - 13 7 - - SW 0,0
24.11.2020 03:00:00 10,3 7,9 - - 9 5 - - SW 0,0
24.11.2020 02:00:00 10,7 8,2 - - 15 8 - - SSW 0,0
24.11.2020 01:00:00 10,4 8,2 - - 9 5 - - SSW 0,0
24.11.2020 00:00:00 9,5 7,5 - - 9 5 - - S 0,0
23.11.2020 23:00:00 8,9 7,1 - - 13 7 - - SSW 0,0
23.11.2020 22:00:00 8,6 6,6 - - 13 7 - - SSW 0,0
23.11.2020 21:00:00 8,4 6,7 - - 11 6 - - S 0,0
23.11.2020 20:00:00 8,8 6,6 - - 16 9 - - SSW 0,0
23.11.2020 19:00:00 8,7 6,1 - - 16 9 - - S 0,0
23.11.2020 18:00:00 8,4 6,0 - - 8 4 - - SSW 0,0
23.11.2020 17:00:00 8,2 5,8 - - 13 7 - - S 0,0
23.11.2020 16:00:00 8,5 5,9 - - 13 7 - - SSW 0,0
23.11.2020 15:00:00 9,0 6,2 - - 18 10 - - SSW 0,0
23.11.2020 14:00:00 8,7 5,9 - - 16 9 - - SSW 0,0
23.11.2020 13:00:00 8,0 5,7 - - 13 7 - - SW 0,0
23.11.2020 12:00:00 7,9 5,2 - - 13 7 - - SSW 0,0
23.11.2020 11:00:00 7,3 3,9 - - 9 5 - - SSW 0,0
23.11.2020 10:00:00 4,1 3,3 - - 11 6 - - SSE 0,0
23.11.2020 09:00:00 0,7 0,7 7,7 10,2 5 3 - - SE 0,0
23.11.2020 08:00:00 -1,3 -1,5 - - 2 1 - - E 0,0
23.11.2020 07:00:00 -1,3 -1,5 - - 2 1 - - WNW 0,0
23.11.2020 06:00:00 -0,7 -1,0 - - 2 1 - - SSW 0,0
23.11.2020 05:00:00 0,0 -0,3 - - 4 2 - - S 0,0
23.11.2020 04:00:00 0,6 0,3 - - 4 2 - - S 0,0
23.11.2020 03:00:00 0,5 0,0 - - 4 2 - - SSW 0,0
23.11.2020 02:00:00 2,2 1,4 - - 5 3 - - SW 0,0
23.11.2020 01:00:00 3,4 2,1 - - 9 5 - - W 0,0
23.11.2020 00:00:00 3,7 2,1 - - 11 6 - - SW 0,0
22.11.2020 23:00:00 3,3 1,7 - - 2 1 - - SSW 0,0
22.11.2020 22:00:00 3,4 1,8 - - 2 1 - - WSW 0,0
22.11.2020 21:00:00 3,8 1,8 - - 4 2 - - SW 0,0
22.11.2020 20:00:00 4,4 2,0 - - 4 2 - - SW 0,0
22.11.2020 19:00:00 4,8 2,1 - - 5 3 - - SW 0,0
22.11.2020 18:00:00 5,9 2,9 - - 5 3 - - SW 0,0
22.11.2020 17:00:00 6,0 2,9 - - 5 3 - - SSW 0,0
22.11.2020 16:00:00 7,5 3,4 - - 11 6 - - W 0,0
22.11.2020 15:00:00 8,7 4,1 - - 8 4 - - W 0,0
22.11.2020 14:00:00 9,4 4,2 - - 11 6 - - W 0,0
22.11.2020 13:00:00 8,9 4,1 - - 11 6 - - WSW 0,0
22.11.2020 12:00:00 8,4 4,9 - - 11 6 - - WSW 0,0
22.11.2020 11:00:00 7,3 5,2 - - 11 6 - - SW 0,0
22.11.2020 10:00:00 4,5 3,6 - - 2 1 - - SSE 0,0
22.11.2020 09:00:00 2,5 1,3 9,2 10,4 4 2 - - NNE 0,0
22.11.2020 08:00:00 4,2 3,4 - - 4 2 - - W 0,0
22.11.2020 07:00:00 5,5 4,3 - - 5 3 - - WSW 0,0
22.11.2020 06:00:00 6,2 4,9 - - 4 2 - - SW 0,0
22.11.2020 05:00:00 7,1 5,6 - - 8 4 - - WSW 0,0
22.11.2020 04:00:00 8,0 5,8 - - 9 5 - - WSW 0,0
22.11.2020 03:00:00 8,4 6,8 - - 8 4 - - WSW 0,0
22.11.2020 02:00:00 6,1 5,1 - - 2 1 - - SSW 0,0
22.11.2020 01:00:00 7,5 6,6 - - 5 3 - - W 0,0
22.11.2020 00:00:00 8,4 7,1 - - 5 3 - - W 0,0
21.11.2020 23:00:00 9,6 8,1 - - 9 5 - - WSW 0,0
21.11.2020 22:00:00 10,5 8,6 - - 13 7 - - W 0,0
21.11.2020 21:00:00 10,3 9,6 - - 9 5 - - W 0,6
21.11.2020 20:00:00 9,7 9,4 - - 11 6 - - WNW 1,6
21.11.2020 19:00:00 11,5 9,6 - - 15 8 - - SW 0,0
21.11.2020 18:00:00 11,6 9,4 - - 15 8 - - SW 0,0
21.11.2020 17:00:00 12,3 9,0 - - 16 9 - - SW 0,0
21.11.2020 16:00:00 12,4 8,9 - - 16 9 - - SW 0,0
21.11.2020 15:00:00 12,7 8,9 - - 21 11 - - SW 0,0
21.11.2020 14:00:00 12,8 8,6 - - 18 10 - - SW 0,0
21.11.2020 13:00:00 12,5 8,4 - - 16 9 52 28 SW 0,0
21.11.2020 12:00:00 12,2 8,3 - - 22 12 - - SW 0,0
21.11.2020 11:00:00 12,1 8,0 - - 22 12 46 25 SW 0,0
21.11.2020 10:00:00 11,4 7,6 - - 15 8 - - SW 0,0
21.11.2020 09:00:00 11,3 7,4 9,2 10,5 16 9 - - SW 0,0
21.11.2020 08:00:00 11,0 7,3 - - 18 10 - - SW 0,0
21.11.2020 07:00:00 10,7 7,3 - - 13 7 - - SW 0,0
21.11.2020 06:00:00 10,9 7,5 - - 15 8 - - SW 0,0
21.11.2020 05:00:00 10,6 7,7 - - 15 8 - - SW 0,0
21.11.2020 04:00:00 10,8 7,7 - - 16 9 - - SW 0,0
21.11.2020 03:00:00 11,1 7,9 - - 15 8 - - SW 0,0
21.11.2020 02:00:00 11,0 8,5 - - 15 8 - - SW 0,0
21.11.2020 01:00:00 10,8 9,0 - - 16 9 - - SSW 0,0
21.11.2020 00:00:00 11,2 8,6 - - 16 9 - - SW 0,0
20.11.2020 23:00:00 11,3 8,4 - - 15 8 - - SW 0,0
20.11.2020 22:00:00 10,8 8,9 - - 15 8 - - SW 0,0
20.11.2020 21:00:00 10,8 9,2 - - 18 10 - - SW 0,0
20.11.2020 20:00:00 10,8 9,5 - - 15 8 - - SW 0,0
20.11.2020 19:00:00 10,2 9,2 - - 11 6 - - SSW 0,0
20.11.2020 18:00:00 10,1 9,0 - - 21 11 - - SW 0,0
20.11.2020 17:00:00 9,7 8,8 - - 16 9 - - SSW 0,0
20.11.2020 16:00:00 9,7 8,5 - - 15 8 - - SSW 0,0
20.11.2020 15:00:00 9,2 8,3 - - 15 8 - - S 0,2
20.11.2020 14:00:00 8,7 7,6 - - 15 8 - - S 0,4
20.11.2020 13:00:00 8,5 7,0 - - 13 7 - - S 0,0
20.11.2020 12:00:00 8,3 6,4 - - 15 8 - - SSW 0,0
20.11.2020 11:00:00 7,8 5,5 - - 15 8 - - SSW 0,0
20.11.2020 10:00:00 7,3 5,0 - - 13 7 - - S 0,0
20.11.2020 09:00:00 6,7 3,9 8,7 10,7 11 6 - - S 0,0
20.11.2020 08:00:00 5,6 3,1 - - 5 3 - - SSW 0,0
20.11.2020 07:00:00 4,1 2,7 - - 4 2 - - SSE 0,0
20.11.2020 06:00:00 3,5 1,7 - - 5 3 - - SSE 0,0
20.11.2020 05:00:00 3,5 1,8 - - 9 5 - - SSW 0,0
20.11.2020 04:00:00 0,9 0,0 - - 4 2 - - SSE 0,0
20.11.2020 03:00:00 2,0 0,8 - - 2 1 - - N 0,0
20.11.2020 02:00:00 3,2 1,4 - - 2 1 - - SW 0,0
20.11.2020 01:00:00 4,5 2,3 - - 4 2 - - SW 0,0
20.11.2020 00:00:00 4,8 2,6 - - 5 3 - - SW 0,0
19.11.2020 23:00:00 4,3 2,4 - - 4 2 - - SW 0,0
19.11.2020 22:00:00 4,3 2,4 - - 4 2 - - SSW 0,0
19.11.2020 21:00:00 3,8 2,0 - - 2 1 - - SSW 0,0
19.11.2020 20:00:00 2,4 0,5 - - 5 3 - - SW 0,0
19.11.2020 19:00:00 3,8 1,5 - - 8 4 - - WSW 0,0
19.11.2020 18:00:00 3,9 0,9 - - 4 2 - - WNW 0,0
19.11.2020 17:00:00 5,0 -0,2 - - 5 3 - - W 0,0
19.11.2020 16:00:00 6,5 0,4 - - 13 7 - - NW 0,0
19.11.2020 15:00:00 7,4 1,0 - - 11 6 - - NNW 0,0
19.11.2020 14:00:00 8,7 1,4 - - 16 9 - - NW 0,0
19.11.2020 13:00:00 8,8 3,2 - - 16 9 - - WNW 0,0
19.11.2020 12:00:00 7,7 2,7 - - 18 10 - - NW 0,0
19.11.2020 11:00:00 7,4 5,0 - - 9 5 - - NW 0,0
19.11.2020 10:00:00 6,8 4,4 - - 16 9 - - N 0,8
19.11.2020 09:00:00 7,2 5,8 10,0 10,9 13 7 - - N 2,0
19.11.2020 08:00:00 7,6 6,2 - - 13 7 - - WNW 0,6
19.11.2020 07:00:00 8,0 6,4 - - 16 9 - - W 0,0
19.11.2020 06:00:00 8,0 6,1 - - 18 10 - - W 0,2
19.11.2020 05:00:00 8,9 4,8 - - 22 12 46 25 W 0,0
19.11.2020 04:00:00 9,0 5,0 - - 28 15 48 26 W 0,0
19.11.2020 03:00:00 9,5 5,4 - - 28 15 46 25 WSW 0,0
19.11.2020 02:00:00 9,3 5,1 - - 22 12 - - WSW 0,0
19.11.2020 01:00:00 9,2 4,6 - - 21 11 48 26 WSW 0,0
19.11.2020 00:00:00 9,0 4,3 - - 26 14 46 25 SW 0,0
18.11.2020 23:00:00 8,1 4,0 - - 22 12 - - SW 0,0
18.11.2020 22:00:00 8,0 3,7 - - 18 10 - - SW 0,0
18.11.2020 21:00:00 7,9 3,5 - - 16 9 - - SW 0,0
18.11.2020 20:00:00 8,3 3,4 - - 16 9 - - SW 0,0
18.11.2020 19:00:00 8,8 3,6 - - 22 12 - - SW 0,0
18.11.2020 18:00:00 9,7 5,6 - - 22 12 - - W 0,0
18.11.2020 17:00:00 10,7 7,2 - - 24 13 48 26 W 0,0
18.11.2020 16:00:00 12,1 9,2 - - 26 14 46 25 W 1,0
18.11.2020 15:00:00 13,5 12,4 - - 16 9 - - SSW 0,0
18.11.2020 14:00:00 14,0 11,3 - - 22 12 - - SSW 0,0
18.11.2020 13:00:00 14,1 11,0 - - 24 13 52 28 SSW 0,0
18.11.2020 12:00:00 14,2 11,0 - - 26 14 57 31 SSW 0,0
18.11.2020 11:00:00 14,0 10,9 - - 26 14 54 29 S 0,0
18.11.2020 10:00:00 14,5 11,2 - - 21 11 46 25 S 0,0
18.11.2020 09:00:00 13,3 10,4 10,7 10,7 18 10 - - S 0,0
18.11.2020 08:00:00 13,0 10,0 - - 22 12 - - S 0,0
18.11.2020 07:00:00 12,6 9,7 - - 22 12 - - S 0,0
18.11.2020 06:00:00 11,9 8,9 - - 18 10 46 25 S 0,0
18.11.2020 05:00:00 12,5 8,8 - - 26 14 52 28 S 0,0
18.11.2020 04:00:00 11,9 9,1 - - 21 11 - - S 0,0

tt = temperature
td = dewpoint
tt -20cm = temperature -20cm
tt -100cm = temperature -100cm
ff = wind speed
fx = gusts
dd = wind direction
rr = precipitation

Next stations